sensor_id;sensor_type;location;lat;lon;timestamp;P1;P2;P0
40947;PMS5003;49382;-25.924;28.194;2023-02-13T00:00:28;17;16;
40947;PMS5003;49382;-25.924;28.194;2023-02-13T00:02:54;18;18;
40947;PMS5003;49382;-25.924;28.194;2023-02-13T00:05:19;15;15;
40947;PMS5003;49382;-25.924;28.194;2023-02-13T00:07:45;15;14;
40947;PMS5003;49382;-25.924;28.194;2023-02-13T00:10:10;10;10;
40947;PMS5003;49382;-25.924;28.194;2023-02-13T00:12:36;7;7;
40947;PMS5003;49382;-25.924;28.194;2023-02-13T00:15:02;7;6;
40947;PMS5003;49382;-25.924;28.194;2023-02-13T00:17:28;10;10;
40947;PMS5003;49382;-25.924;28.194;2023-02-13T00:19:54;8;8;
40947;PMS5003;49382;-25.924;28.194;2023-02-13T00:22:19;6;6;
40947;PMS5003;49382;-25.924;28.194;2023-02-13T00:24:45;8;8;
40947;PMS5003;49382;-25.924;28.194;2023-02-13T00:27:11;7;7;
40947;PMS5003;49382;-25.924;28.194;2023-02-13T00:29:37;7;7;
40947;PMS5003;49382;-25.924;28.194;2023-02-13T00:32:02;6;6;
40947;PMS5003;49382;-25.924;28.194;2023-02-13T00:34:28;5;5;
40947;PMS5003;49382;-25.924;28.194;2023-02-13T00:36:54;6;6;
40947;PMS5003;49382;-25.924;28.194;2023-02-13T00:39:19;5;5;
40947;PMS5003;49382;-25.924;28.194;2023-02-13T00:41:45;6;6;
40947;PMS5003;49382;-25.924;28.194;2023-02-13T00:44:11;5;5;
40947;PMS5003;49382;-25.924;28.194;2023-02-13T00:46:37;5;5;
40947;PMS5003;49382;-25.924;28.194;2023-02-13T00:49:02;5;5;
40947;PMS5003;49382;-25.924;28.194;2023-02-13T00:51:28;7;6;
40947;PMS5003;49382;-25.924;28.194;2023-02-13T00:53:54;4;4;
40947;PMS5003;49382;-25.924;28.194;2023-02-13T00:56:20;5;5;
40947;PMS5003;49382;-25.924;28.194;2023-02-13T00:58:46;5;5;
40947;PMS5003;49382;-25.924;28.194;2023-02-13T01:01:11;7;7;
40947;PMS5003;49382;-25.924;28.194;2023-02-13T01:03:37;4;4;
40947;PMS5003;49382;-25.924;28.194;2023-02-13T01:06:03;6;6;
40947;PMS5003;49382;-25.924;28.194;2023-02-13T01:08:28;7;7;
40947;PMS5003;49382;-25.924;28.194;2023-02-13T01:10:54;7;7;
40947;PMS5003;49382;-25.924;28.194;2023-02-13T01:13:20;5;5;
40947;PMS5003;49382;-25.924;28.194;2023-02-13T01:15:46;6;6;
40947;PMS5003;49382;-25.924;28.194;2023-02-13T01:18:12;8;8;
40947;PMS5003;49382;-25.924;28.194;2023-02-13T01:20:37;8;8;
40947;PMS5003;49382;-25.924;28.194;2023-02-13T01:23:03;8;8;
40947;PMS5003;49382;-25.924;28.194;2023-02-13T01:25:29;8;8;
40947;PMS5003;49382;-25.924;28.194;2023-02-13T01:27:55;6;6;
40947;PMS5003;49382;-25.924;28.194;2023-02-13T01:30:20;9;9;
40947;PMS5003;49382;-25.924;28.194;2023-02-13T01:32:46;9;9;
40947;PMS5003;49382;-25.924;28.194;2023-02-13T01:35:13;8;8;
40947;PMS5003;49382;-25.924;28.194;2023-02-13T01:37:38;9;9;
40947;PMS5003;49382;-25.924;28.194;2023-02-13T01:40:04;10;10;
40947;PMS5003;49382;-25.924;28.194;2023-02-13T01:42:30;13;13;
40947;PMS5003;49382;-25.924;28.194;2023-02-13T01:44:56;13;13;
40947;PMS5003;49382;-25.924;28.194;2023-02-13T01:47:23;18;18;
40947;PMS5003;49382;-25.924;28.194;2023-02-13T01:49:47;19;18;
40947;PMS5003;49382;-25.924;28.194;2023-02-13T01:52:12;20;20;
40947;PMS5003;49382;-25.924;28.194;2023-02-13T01:54:38;17;17;
40947;PMS5003;49382;-25.924;28.194;2023-02-13T01:57:05;20;20;
40947;PMS5003;49382;-25.924;28.194;2023-02-13T01:59:30;15;15;
40947;PMS5003;49382;-25.924;28.194;2023-02-13T02:01:55;16;16;
40947;PMS5003;49382;-25.924;28.194;2023-02-13T02:04:22;16;16;
40947;PMS5003;49382;-25.924;28.194;2023-02-13T02:06:47;15;15;
40947;PMS5003;49382;-25.924;28.194;2023-02-13T02:09:13;17;17;
40947;PMS5003;49382;-25.924;28.194;2023-02-13T02:11:40;15;15;
40947;PMS5003;49382;-25.924;28.194;2023-02-13T02:14:04;16;16;
40947;PMS5003;49382;-25.924;28.194;2023-02-13T02:16:29;13;12;
40947;PMS5003;49382;-25.924;28.194;2023-02-13T02:18:55;15;15;
40947;PMS5003;49382;-25.924;28.194;2023-02-13T02:28:43;15;15;
40947;PMS5003;49382;-25.924;28.194;2023-02-13T02:33:30;16;16;
40947;PMS5003;49382;-25.924;28.194;2023-02-13T02:35:57;15;15;
40947;PMS5003;49382;-25.924;28.194;2023-02-13T02:38:25;18;18;
40947;PMS5003;49382;-25.924;28.194;2023-02-13T02:40:49;17;17;
40947;PMS5003;49382;-25.924;28.194;2023-02-13T02:43:15;16;16;
40947;PMS5003;49382;-25.924;28.194;2023-02-13T02:45:38;16;16;
40947;PMS5003;49382;-25.924;28.194;2023-02-13T02:48:04;16;16;
40947;PMS5003;49382;-25.924;28.194;2023-02-13T02:50:32;15;15;
40947;PMS5003;49382;-25.924;28.194;2023-02-13T02:52:57;18;18;
40947;PMS5003;49382;-25.924;28.194;2023-02-13T02:55:23;16;16;
40947;PMS5003;49382;-25.924;28.194;2023-02-13T02:57:47;15;15;
40947;PMS5003;49382;-25.924;28.194;2023-02-13T03:00:11;18;18;
40947;PMS5003;49382;-25.924;28.194;2023-02-13T03:02:37;18;18;
40947;PMS5003;49382;-25.924;28.194;2023-02-13T03:05:03;17;17;
40947;PMS5003;49382;-25.924;28.194;2023-02-13T03:07:28;17;15;
40947;PMS5003;49382;-25.924;28.194;2023-02-13T03:09:56;17;16;
40947;PMS5003;49382;-25.924;28.194;2023-02-13T03:12:20;19;19;
40947;PMS5003;49382;-25.924;28.194;2023-02-13T03:14:45;16;16;
40947;PMS5003;49382;-25.924;28.194;2023-02-13T03:17:12;16;16;
40947;PMS5003;49382;-25.924;28.194;2023-02-13T03:19:40;15;15;
40947;PMS5003;49382;-25.924;28.194;2023-02-13T03:22:03;16;16;
40947;PMS5003;49382;-25.924;28.194;2023-02-13T03:24:30;13;13;
40947;PMS5003;49382;-25.924;28.194;2023-02-13T03:26:55;14;14;
40947;PMS5003;49382;-25.924;28.194;2023-02-13T03:29:23;14;14;
40947;PMS5003;49382;-25.924;28.194;2023-02-13T03:31:47;12;12;
40947;PMS5003;49382;-25.924;28.194;2023-02-13T03:34:12;15;14;
40947;PMS5003;49382;-25.924;28.194;2023-02-13T03:36:41;13;13;
40947;PMS5003;49382;-25.924;28.194;2023-02-13T03:39:04;15;15;
40947;PMS5003;49382;-25.924;28.194;2023-02-13T03:41:29;14;14;
40947;PMS5003;49382;-25.924;28.194;2023-02-13T03:43:58;13;13;
40947;PMS5003;49382;-25.924;28.194;2023-02-13T03:46:19;13;13;
40947;PMS5003;49382;-25.924;28.194;2023-02-13T03:48:45;13;13;
40947;PMS5003;49382;-25.924;28.194;2023-02-13T03:51:12;17;16;
40947;PMS5003;49382;-25.924;28.194;2023-02-13T03:53:37;13;13;
40947;PMS5003;49382;-25.924;28.194;2023-02-13T03:56:02;13;13;
40947;PMS5003;49382;-25.924;28.194;2023-02-13T03:58:28;11;11;
40947;PMS5003;49382;-25.924;28.194;2023-02-13T04:00:55;14;14;
40947;PMS5003;49382;-25.924;28.194;2023-02-13T04:03:21;12;12;
40947;PMS5003;49382;-25.924;28.194;2023-02-13T04:05:46;15;14;
40947;PMS5003;49382;-25.924;28.194;2023-02-13T04:08:11;13;13;
40947;PMS5003;49382;-25.924;28.194;2023-02-13T04:10:38;15;14;
40947;PMS5003;49382;-25.924;28.194;2023-02-13T04:13:05;12;12;
40947;PMS5003;49382;-25.924;28.194;2023-02-13T04:15:30;13;13;
40947;PMS5003;49382;-25.924;28.194;2023-02-13T04:17:56;15;15;
40947;PMS5003;49382;-25.924;28.194;2023-02-13T04:20:20;17;17;
40947;PMS5003;49382;-25.924;28.194;2023-02-13T04:22:46;12;12;
40947;PMS5003;49382;-25.924;28.194;2023-02-13T04:25:12;11;11;
40947;PMS5003;49382;-25.924;28.194;2023-02-13T04:27:37;15;15;
40947;PMS5003;49382;-25.924;28.194;2023-02-13T04:30:03;18;18;
40947;PMS5003;49382;-25.924;28.194;2023-02-13T04:32:28;10;10;
40947;PMS5003;49382;-25.924;28.194;2023-02-13T04:34:54;11;11;
40947;PMS5003;49382;-25.924;28.194;2023-02-13T04:37:20;11;11;
40947;PMS5003;49382;-25.924;28.194;2023-02-13T04:39:46;13;13;
40947;PMS5003;49382;-25.924;28.194;2023-02-13T04:42:11;11;11;
40947;PMS5003;49382;-25.924;28.194;2023-02-13T04:44:37;10;10;
40947;PMS5003;49382;-25.924;28.194;2023-02-13T04:47:03;9;9;
40947;PMS5003;49382;-25.924;28.194;2023-02-13T04:49:29;11;10;
40947;PMS5003;49382;-25.924;28.194;2023-02-13T04:51:55;8;8;
40947;PMS5003;49382;-25.924;28.194;2023-02-13T04:54:20;6;6;
40947;PMS5003;49382;-25.924;28.194;2023-02-13T04:56:46;7;7;
40947;PMS5003;49382;-25.924;28.194;2023-02-13T04:59:12;7;7;
40947;PMS5003;49382;-25.924;28.194;2023-02-13T05:01:38;8;7;
40947;PMS5003;49382;-25.924;28.194;2023-02-13T05:04:04;14;14;
40947;PMS5003;49382;-25.924;28.194;2023-02-13T05:06:29;14;14;
40947;PMS5003;49382;-25.924;28.194;2023-02-13T05:08:55;13;13;
40947;PMS5003;49382;-25.924;28.194;2023-02-13T05:11:20;13;13;
40947;PMS5003;49382;-25.924;28.194;2023-02-13T05:13:46;14;13;
40947;PMS5003;49382;-25.924;28.194;2023-02-13T05:16:11;13;13;
40947;PMS5003;49382;-25.924;28.194;2023-02-13T05:18:37;8;8;
40947;PMS5003;49382;-25.924;28.194;2023-02-13T05:21:03;7;7;
40947;PMS5003;49382;-25.924;28.194;2023-02-13T05:23:29;6;6;
40947;PMS5003;49382;-25.924;28.194;2023-02-13T05:25:54;7;7;
40947;PMS5003;49382;-25.924;28.194;2023-02-13T05:28:20;6;6;
40947;PMS5003;49382;-25.924;28.194;2023-02-13T05:30:46;8;8;
40947;PMS5003;49382;-25.924;28.194;2023-02-13T05:33:12;6;6;
40947;PMS5003;49382;-25.924;28.194;2023-02-13T05:35:37;5;5;
40947;PMS5003;49382;-25.924;28.194;2023-02-13T05:38:03;3;3;
40947;PMS5003;49382;-25.924;28.194;2023-02-13T05:40:29;4;4;
40947;PMS5003;49382;-25.924;28.194;2023-02-13T05:42:55;6;6;
40947;PMS5003;49382;-25.924;28.194;2023-02-13T05:45:20;8;8;
40947;PMS5003;49382;-25.924;28.194;2023-02-13T05:47:46;7;7;
40947;PMS5003;49382;-25.924;28.194;2023-02-13T05:50:12;4;4;
40947;PMS5003;49382;-25.924;28.194;2023-02-13T05:52:38;5;5;
40947;PMS5003;49382;-25.924;28.194;2023-02-13T05:55:04;2;2;
40947;PMS5003;49382;-25.924;28.194;2023-02-13T05:57:29;3;3;
40947;PMS5003;49382;-25.924;28.194;2023-02-13T05:59:55;4;4;
40947;PMS5003;49382;-25.924;28.194;2023-02-13T06:02:21;3;3;
40947;PMS5003;49382;-25.924;28.194;2023-02-13T06:04:46;5;5;
40947;PMS5003;49382;-25.924;28.194;2023-02-13T06:07:12;4;4;
40947;PMS5003;49382;-25.924;28.194;2023-02-13T06:09:38;2;2;
40947;PMS5003;49382;-25.924;28.194;2023-02-13T06:12:04;4;4;
40947;PMS5003;49382;-25.924;28.194;2023-02-13T06:14:29;5;5;
40947;PMS5003;49382;-25.924;28.194;2023-02-13T06:16:55;10;10;
40947;PMS5003;49382;-25.924;28.194;2023-02-13T06:19:21;2;2;
40947;PMS5003;49382;-25.924;28.194;2023-02-13T06:21:47;0;0;
40947;PMS5003;49382;-25.924;28.194;2023-02-13T06:24:12;2;1;
40947;PMS5003;49382;-25.924;28.194;2023-02-13T06:26:38;1;1;
40947;PMS5003;49382;-25.924;28.194;2023-02-13T06:29:04;1;1;
40947;PMS5003;49382;-25.924;28.194;2023-02-13T06:31:30;0;0;
40947;PMS5003;49382;-25.924;28.194;2023-02-13T06:33:56;1;1;
40947;PMS5003;49382;-25.924;28.194;2023-02-13T06:36:21;1;1;
40947;PMS5003;49382;-25.924;28.194;2023-02-13T06:38:47;1;1;
40947;PMS5003;49382;-25.924;28.194;2023-02-13T06:41:13;1;1;
40947;PMS5003;49382;-25.924;28.194;2023-02-13T06:43:38;1;1;
40947;PMS5003;49382;-25.924;28.194;2023-02-13T06:46:04;0;0;
40947;PMS5003;49382;-25.924;28.194;2023-02-13T06:48:30;5;5;
40947;PMS5003;49382;-25.924;28.194;2023-02-13T06:50:56;5;5;
40947;PMS5003;49382;-25.924;28.194;2023-02-13T06:53:21;9;9;
40947;PMS5003;49382;-25.924;28.194;2023-02-13T06:55:47;5;5;
40947;PMS5003;49382;-25.924;28.194;2023-02-13T06:58:13;8;8;
40947;PMS5003;49382;-25.924;28.194;2023-02-13T07:00:38;11;11;
40947;PMS5003;49382;-25.924;28.194;2023-02-13T07:03:04;1;1;
40947;PMS5003;49382;-25.924;28.194;2023-02-13T07:05:30;1;1;
40947;PMS5003;49382;-25.924;28.194;2023-02-13T07:07:56;1;1;
40947;PMS5003;49382;-25.924;28.194;2023-02-13T07:10:21;1;1;
40947;PMS5003;49382;-25.924;28.194;2023-02-13T07:12:47;3;3;
40947;PMS5003;49382;-25.924;28.194;2023-02-13T07:15:13;12;12;
40947;PMS5003;49382;-25.924;28.194;2023-02-13T07:17:39;7;7;
40947;PMS5003;49382;-25.924;28.194;2023-02-13T07:20:05;2;2;
40947;PMS5003;49382;-25.924;28.194;2023-02-13T07:22:30;8;8;
40947;PMS5003;49382;-25.924;28.194;2023-02-13T07:24:56;7;7;
40947;PMS5003;49382;-25.924;28.194;2023-02-13T07:27:22;11;11;
40947;PMS5003;49382;-25.924;28.194;2023-02-13T07:29:48;8;8;
40947;PMS5003;49382;-25.924;28.194;2023-02-13T07:32:14;6;6;
40947;PMS5003;49382;-25.924;28.194;2023-02-13T07:34:39;4;4;
40947;PMS5003;49382;-25.924;28.194;2023-02-13T07:37:05;0;0;
40947;PMS5003;49382;-25.924;28.194;2023-02-13T07:39:30;0;0;
40947;PMS5003;49382;-25.924;28.194;2023-02-13T07:41:56;0;0;
40947;PMS5003;49382;-25.924;28.194;2023-02-13T07:44:21;0;0;
40947;PMS5003;49382;-25.924;28.194;2023-02-13T07:46:47;0;0;
40947;PMS5003;49382;-25.924;28.194;2023-02-13T07:49:13;0;0;
40947;PMS5003;49382;-25.924;28.194;2023-02-13T07:51:39;0;0;
40947;PMS5003;49382;-25.924;28.194;2023-02-13T07:54:04;0;0;
40947;PMS5003;49382;-25.924;28.194;2023-02-13T07:56:30;0;0;
40947;PMS5003;49382;-25.924;28.194;2023-02-13T07:58:56;0;0;
40947;PMS5003;49382;-25.924;28.194;2023-02-13T08:01:21;0;0;
40947;PMS5003;49382;-25.924;28.194;2023-02-13T08:03:47;0;0;
40947;PMS5003;49382;-25.924;28.194;2023-02-13T08:06:13;0;0;
40947;PMS5003;49382;-25.924;28.194;2023-02-13T08:08:39;0;0;
40947;PMS5003;49382;-25.924;28.194;2023-02-13T08:11:05;0;0;
40947;PMS5003;49382;-25.924;28.194;2023-02-13T08:13:30;0;0;
40947;PMS5003;49382;-25.924;28.194;2023-02-13T08:15:56;0;0;
40947;PMS5003;49382;-25.924;28.194;2023-02-13T08:18:21;0;0;
40947;PMS5003;49382;-25.924;28.194;2023-02-13T08:20:47;0;0;
40947;PMS5003;49382;-25.924;28.194;2023-02-13T08:23:13;0;0;
40947;PMS5003;49382;-25.924;28.194;2023-02-13T08:25:39;0;0;
40947;PMS5003;49382;-25.924;28.194;2023-02-13T08:28:04;0;0;
40947;PMS5003;49382;-25.924;28.194;2023-02-13T08:30:30;0;0;
40947;PMS5003;49382;-25.924;28.194;2023-02-13T08:32:56;0;0;
40947;PMS5003;49382;-25.924;28.194;2023-02-13T08:35:22;0;0;
40947;PMS5003;49382;-25.924;28.194;2023-02-13T08:37:47;0;0;
40947;PMS5003;49382;-25.924;28.194;2023-02-13T08:40:13;0;0;
40947;PMS5003;49382;-25.924;28.194;2023-02-13T08:42:38;28;28;
40947;PMS5003;49382;-25.924;28.194;2023-02-13T08:45:04;25;25;
40947;PMS5003;49382;-25.924;28.194;2023-02-13T08:47:29;15;15;
40947;PMS5003;49382;-25.924;28.194;2023-02-13T08:49:57;6;6;
40947;PMS5003;49382;-25.924;28.194;2023-02-13T08:52:20;34;34;
40947;PMS5003;49382;-25.924;28.194;2023-02-13T08:54:46;0;0;
40947;PMS5003;49382;-25.924;28.194;2023-02-13T08:57:12;0;0;
40947;PMS5003;49382;-25.924;28.194;2023-02-13T08:59:37;0;0;
40947;PMS5003;49382;-25.924;28.194;2023-02-13T09:02:03;0;0;
40947;PMS5003;49382;-25.924;28.194;2023-02-13T09:04:29;0;0;
40947;PMS5003;49382;-25.924;28.194;2023-02-13T09:06:55;0;0;
40947;PMS5003;49382;-25.924;28.194;2023-02-13T09:09:20;0;0;
40947;PMS5003;49382;-25.924;28.194;2023-02-13T09:11:46;0;0;
40947;PMS5003;49382;-25.924;28.194;2023-02-13T09:14:12;0;0;
40947;PMS5003;49382;-25.924;28.194;2023-02-13T09:16:37;0;0;
40947;PMS5003;49382;-25.924;28.194;2023-02-13T09:19:03;0;0;
40947;PMS5003;49382;-25.924;28.194;2023-02-13T09:21:29;0;0;
40947;PMS5003;49382;-25.924;28.194;2023-02-13T09:23:54;0;0;
40947;PMS5003;49382;-25.924;28.194;2023-02-13T09:26:20;0;0;
40947;PMS5003;49382;-25.924;28.194;2023-02-13T09:28:46;0;0;
40947;PMS5003;49382;-25.924;28.194;2023-02-13T09:31:14;1;1;
40947;PMS5003;49382;-25.924;28.194;2023-02-13T09:33:37;1;1;
40947;PMS5003;49382;-25.924;28.194;2023-02-13T09:36:04;1;1;
40947;PMS5003;49382;-25.924;28.194;2023-02-13T09:38:29;0;0;
40947;PMS5003;49382;-25.924;28.194;2023-02-13T09:40:55;1;1;
40947;PMS5003;49382;-25.924;28.194;2023-02-13T09:43:21;2;1;
40947;PMS5003;49382;-25.924;28.194;2023-02-13T09:45:46;1;1;
40947;PMS5003;49382;-25.924;28.194;2023-02-13T09:48:14;1;1;
40947;PMS5003;49382;-25.924;28.194;2023-02-13T09:50:37;2;2;
40947;PMS5003;49382;-25.924;28.194;2023-02-13T09:53:03;0;0;
40947;PMS5003;49382;-25.924;28.194;2023-02-13T09:55:31;1;1;
40947;PMS5003;49382;-25.924;28.194;2023-02-13T09:57:56;1;1;
40947;PMS5003;49382;-25.924;28.194;2023-02-13T10:00:21;0;0;
40947;PMS5003;49382;-25.924;28.194;2023-02-13T10:02:52;0;0;
40947;PMS5003;49382;-25.924;28.194;2023-02-13T10:05:16;1;1;
40947;PMS5003;49382;-25.924;28.194;2023-02-13T10:07:38;1;1;
40947;PMS5003;49382;-25.924;28.194;2023-02-13T10:10:06;1;1;
40947;PMS5003;49382;-25.924;28.194;2023-02-13T10:14:59;1;1;
40947;PMS5003;49382;-25.924;28.194;2023-02-13T10:17:22;1;1;
40947;PMS5003;49382;-25.924;28.194;2023-02-13T10:19:48;0;0;
40947;PMS5003;49382;-25.924;28.194;2023-02-13T10:22:13;0;0;
40947;PMS5003;49382;-25.924;28.194;2023-02-13T10:24:38;0;0;
40947;PMS5003;49382;-25.924;28.194;2023-02-13T10:27:05;0;0;
40947;PMS5003;49382;-25.924;28.194;2023-02-13T10:29:34;1;0;
40947;PMS5003;49382;-25.924;28.194;2023-02-13T10:31:55;0;0;
40947;PMS5003;49382;-25.924;28.194;2023-02-13T10:34:21;0;0;
40947;PMS5003;49382;-25.924;28.194;2023-02-13T10:36:46;0;0;
40947;PMS5003;49382;-25.924;28.194;2023-02-13T10:39:17;0;0;
40947;PMS5003;49382;-25.924;28.194;2023-02-13T10:41:40;0;0;
40947;PMS5003;49382;-25.924;28.194;2023-02-13T10:44:11;0;0;
40947;PMS5003;49382;-25.924;28.194;2023-02-13T10:46:31;0;0;
40947;PMS5003;49382;-25.924;28.194;2023-02-13T10:48:59;1;1;
40947;PMS5003;49382;-25.924;28.194;2023-02-13T10:51:23;0;0;
40947;PMS5003;49382;-25.924;28.194;2023-02-13T10:53:52;0;0;
40947;PMS5003;49382;-25.924;28.194;2023-02-13T10:58:40;0;0;
40947;PMS5003;49382;-25.924;28.194;2023-02-13T11:01:06;1;1;
40947;PMS5003;49382;-25.924;28.194;2023-02-13T11:03:29;1;1;
40947;PMS5003;49382;-25.924;28.194;2023-02-13T11:05:55;1;1;
40947;PMS5003;49382;-25.924;28.194;2023-02-13T11:08:21;0;0;
40947;PMS5003;49382;-25.924;28.194;2023-02-13T11:10:46;1;1;
40947;PMS5003;49382;-25.924;28.194;2023-02-13T11:13:17;0;0;
40947;PMS5003;49382;-25.924;28.194;2023-02-13T11:15:38;0;0;
40947;PMS5003;49382;-25.924;28.194;2023-02-13T11:18:10;0;0;
40947;PMS5003;49382;-25.924;28.194;2023-02-13T11:20:32;0;0;
40947;PMS5003;49382;-25.924;28.194;2023-02-13T11:22:55;0;0;
40947;PMS5003;49382;-25.924;28.194;2023-02-13T11:25:22;0;0;
40947;PMS5003;49382;-25.924;28.194;2023-02-13T11:27:46;1;1;
40947;PMS5003;49382;-25.924;28.194;2023-02-13T11:32:37;1;1;
40947;PMS5003;49382;-25.924;28.194;2023-02-13T11:37:29;1;1;
40947;PMS5003;49382;-25.924;28.194;2023-02-13T11:39:55;1;1;
40947;PMS5003;49382;-25.924;28.194;2023-02-13T11:42:24;0;0;
40947;PMS5003;49382;-25.924;28.194;2023-02-13T11:44:49;1;1;
40947;PMS5003;49382;-25.924;28.194;2023-02-13T11:47:12;1;1;
40947;PMS5003;49382;-25.924;28.194;2023-02-13T11:49:38;1;1;
40947;PMS5003;49382;-25.924;28.194;2023-02-13T11:52:04;1;1;
40947;PMS5003;49382;-25.924;28.194;2023-02-13T11:54:30;0;0;
40947;PMS5003;49382;-25.924;28.194;2023-02-13T11:56:55;1;1;
40947;PMS5003;49382;-25.924;28.194;2023-02-13T11:59:21;1;1;
40947;PMS5003;49382;-25.924;28.194;2023-02-13T12:01:46;1;1;
40947;PMS5003;49382;-25.924;28.194;2023-02-13T12:04:14;1;1;
40947;PMS5003;49382;-25.924;28.194;2023-02-13T12:06:37;1;1;
40947;PMS5003;49382;-25.924;28.194;2023-02-13T12:09:03;1;1;
40947;PMS5003;49382;-25.924;28.194;2023-02-13T12:11:32;1;1;
40947;PMS5003;49382;-25.924;28.194;2023-02-13T12:13:55;1;1;
40947;PMS5003;49382;-25.924;28.194;2023-02-13T12:16:24;1;1;
40947;PMS5003;49382;-25.924;28.194;2023-02-13T12:18:47;1;1;
40947;PMS5003;49382;-25.924;28.194;2023-02-13T12:21:15;1;1;
40947;PMS5003;49382;-25.924;28.194;2023-02-13T12:23:39;0;0;
40947;PMS5003;49382;-25.924;28.194;2023-02-13T12:26:09;1;1;
40947;PMS5003;49382;-25.924;28.194;2023-02-13T12:28:33;6;6;
40947;PMS5003;49382;-25.924;28.194;2023-02-13T12:30:58;6;5;
40947;PMS5003;49382;-25.924;28.194;2023-02-13T12:33:25;4;4;
40947;PMS5003;49382;-25.924;28.194;2023-02-13T12:35:48;3;3;
40947;PMS5003;49382;-25.924;28.194;2023-02-13T12:38:16;5;5;
40947;PMS5003;49382;-25.924;28.194;2023-02-13T12:40:40;9;7;
40947;PMS5003;49382;-25.924;28.194;2023-02-13T12:43:09;8;8;
40947;PMS5003;49382;-25.924;28.194;2023-02-13T12:45:31;8;8;
40947;PMS5003;49382;-25.924;28.194;2023-02-13T12:50:28;9;9;
40947;PMS5003;49382;-25.924;28.194;2023-02-13T12:52:48;6;6;
40947;PMS5003;49382;-25.924;28.194;2023-02-13T12:55:17;8;7;
40947;PMS5003;49382;-25.924;28.194;2023-02-13T12:57:41;9;8;
40947;PMS5003;49382;-25.924;28.194;2023-02-13T13:04:58;11;10;
40947;PMS5003;49382;-25.924;28.194;2023-02-13T13:12:14;16;16;
40947;PMS5003;49382;-25.924;28.194;2023-02-13T13:14:38;20;19;
40947;PMS5003;49382;-25.924;28.194;2023-02-13T13:17:03;20;20;
40947;PMS5003;49382;-25.924;28.194;2023-02-13T13:19:29;17;17;
40947;PMS5003;49382;-25.924;28.194;2023-02-13T13:21:53;55;55;
40947;PMS5003;49382;-25.924;28.194;2023-02-13T13:24:22;15;15;
40947;PMS5003;49382;-25.924;28.194;2023-02-13T13:26:43;49;49;
40947;PMS5003;49382;-25.924;28.194;2023-02-13T13:29:10;38;38;
40947;PMS5003;49382;-25.924;28.194;2023-02-13T13:31:34;26;26;
40947;PMS5003;49382;-25.924;28.194;2023-02-13T13:34:00;25;25;
40947;PMS5003;49382;-25.924;28.194;2023-02-13T13:36:29;26;26;
40947;PMS5003;49382;-25.924;28.194;2023-02-13T13:38:52;30;30;
40947;PMS5003;49382;-25.924;28.194;2023-02-13T13:41:17;42;42;
40947;PMS5003;49382;-25.924;28.194;2023-02-13T13:43:43;33;33;
40947;PMS5003;49382;-25.924;28.194;2023-02-13T13:46:07;16;16;
40947;PMS5003;49382;-25.924;28.194;2023-02-13T13:48:38;10;8;
40947;PMS5003;49382;-25.924;28.194;2023-02-13T13:50:58;11;11;
40947;PMS5003;49382;-25.924;28.194;2023-02-13T13:53:24;15;15;
40947;PMS5003;49382;-25.924;28.194;2023-02-13T13:58:21;19;18;
40947;PMS5003;49382;-25.924;28.194;2023-02-13T14:00:41;22;22;
40947;PMS5003;49382;-25.924;28.194;2023-02-13T14:05:33;22;22;
40947;PMS5003;49382;-25.924;28.194;2023-02-13T14:07:59;31;31;
40947;PMS5003;49382;-25.924;28.194;2023-02-13T14:12:50;41;40;
40947;PMS5003;49382;-25.924;28.194;2023-02-13T14:22:33;41;41;
40947;PMS5003;49382;-25.924;28.194;2023-02-13T14:24:56;37;37;
40947;PMS5003;49382;-25.924;28.194;2023-02-13T14:27:22;44;43;
40947;PMS5003;49382;-25.924;28.194;2023-02-13T14:29:46;13;13;
40947;PMS5003;49382;-25.924;28.194;2023-02-13T14:32:16;34;34;
40947;PMS5003;49382;-25.924;28.194;2023-02-13T14:34:37;35;35;
40947;PMS5003;49382;-25.924;28.194;2023-02-13T14:37:05;17;17;
40947;PMS5003;49382;-25.924;28.194;2023-02-13T14:39:28;35;35;
40947;PMS5003;49382;-25.924;28.194;2023-02-13T14:41:57;44;44;
40947;PMS5003;49382;-25.924;28.194;2023-02-13T14:44:19;21;21;
40947;PMS5003;49382;-25.924;28.194;2023-02-13T14:46:43;66;65;
40947;PMS5003;49382;-25.924;28.194;2023-02-13T14:49:10;96;96;
40947;PMS5003;49382;-25.924;28.194;2023-02-13T14:51:35;9;9;
40947;PMS5003;49382;-25.924;28.194;2023-02-13T14:54:02;53;53;
40947;PMS5003;49382;-25.924;28.194;2023-02-13T14:56:25;64;64;
40947;PMS5003;49382;-25.924;28.194;2023-02-13T14:58:52;31;31;
40947;PMS5003;49382;-25.924;28.194;2023-02-13T15:01:20;29;29;
40947;PMS5003;49382;-25.924;28.194;2023-02-13T15:03:43;70;70;
40947;PMS5003;49382;-25.924;28.194;2023-02-13T15:06:10;45;45;
40947;PMS5003;49382;-25.924;28.194;2023-02-13T15:08:34;28;28;
40947;PMS5003;49382;-25.924;28.194;2023-02-13T15:10:58;29;29;
40947;PMS5003;49382;-25.924;28.194;2023-02-13T15:13:24;29;29;
40947;PMS5003;49382;-25.924;28.194;2023-02-13T15:15:50;32;32;
40947;PMS5003;49382;-25.924;28.194;2023-02-13T15:18:16;76;76;
40947;PMS5003;49382;-25.924;28.194;2023-02-13T15:20:40;79;78;
40947;PMS5003;49382;-25.924;28.194;2023-02-13T15:23:05;26;26;
40947;PMS5003;49382;-25.924;28.194;2023-02-13T15:25:31;38;38;
40947;PMS5003;49382;-25.924;28.194;2023-02-13T15:27:56;70;70;
40947;PMS5003;49382;-25.924;28.194;2023-02-13T15:30:22;29;29;
40947;PMS5003;49382;-25.924;28.194;2023-02-13T15:37:38;23;23;
40947;PMS5003;49382;-25.924;28.194;2023-02-13T15:42:29;30;30;
40947;PMS5003;49382;-25.924;28.194;2023-02-13T15:44:55;30;30;
40947;PMS5003;49382;-25.924;28.194;2023-02-13T15:47:22;11;11;
40947;PMS5003;49382;-25.924;28.194;2023-02-13T15:49:46;44;44;
40947;PMS5003;49382;-25.924;28.194;2023-02-13T15:52:13;55;55;
40947;PMS5003;49382;-25.924;28.194;2023-02-13T15:54:46;17;17;
40947;PMS5003;49382;-25.924;28.194;2023-02-13T15:57:03;27;27;
40947;PMS5003;49382;-25.924;28.194;2023-02-13T15:59:29;35;34;
40947;PMS5003;49382;-25.924;28.194;2023-02-13T16:01:52;42;42;
40947;PMS5003;49382;-25.924;28.194;2023-02-13T16:04:18;56;56;
40947;PMS5003;49382;-25.924;28.194;2023-02-13T16:06:44;26;26;
40947;PMS5003;49382;-25.924;28.194;2023-02-13T16:11:34;79;79;
40947;PMS5003;49382;-25.924;28.194;2023-02-13T16:14:03;58;58;
40947;PMS5003;49382;-25.924;28.194;2023-02-13T16:16:24;4;4;
40947;PMS5003;49382;-25.924;28.194;2023-02-13T16:18:50;45;45;
40947;PMS5003;49382;-25.924;28.194;2023-02-13T16:21:15;46;46;
40947;PMS5003;49382;-25.924;28.194;2023-02-13T16:23:41;27;27;
40947;PMS5003;49382;-25.924;28.194;2023-02-13T16:26:06;8;8;
40947;PMS5003;49382;-25.924;28.194;2023-02-13T16:28:32;20;20;
40947;PMS5003;49382;-25.924;28.194;2023-02-13T16:30:58;25;25;
40947;PMS5003;49382;-25.924;28.194;2023-02-13T16:33:25;25;25;
40947;PMS5003;49382;-25.924;28.194;2023-02-13T16:35:48;23;23;
40947;PMS5003;49382;-25.924;28.194;2023-02-13T16:40:39;41;40;
40947;PMS5003;49382;-25.924;28.194;2023-02-13T16:45:30;26;26;
40947;PMS5003;49382;-25.924;28.194;2023-02-13T16:47:58;46;46;
40947;PMS5003;49382;-25.924;28.194;2023-02-13T16:50:21;62;62;
40947;PMS5003;49382;-25.924;28.194;2023-02-13T16:52:46;22;22;